createdAt,value
2023-01-17T00:00:31.842Z,976.80
2023-01-17T00:01:31.801Z,976.76
2023-01-17T00:02:31.846Z,976.89
2023-01-17T00:03:31.793Z,976.85
2023-01-17T00:04:32.030Z,976.93
2023-01-17T00:05:31.764Z,976.89
2023-01-17T00:06:31.773Z,976.92
2023-01-17T00:07:31.715Z,976.99
2023-01-17T00:08:31.717Z,976.91
2023-01-17T00:09:31.677Z,976.93
2023-01-17T00:10:31.667Z,976.94
2023-01-17T00:11:31.670Z,976.95
2023-01-17T00:12:31.670Z,976.93
2023-01-17T00:13:31.641Z,976.96
2023-01-17T00:14:31.626Z,977.00
2023-01-17T00:15:31.607Z,976.95
2023-01-17T00:16:31.596Z,976.96
2023-01-17T00:17:31.592Z,977.02
2023-01-17T00:18:31.690Z,977.06
2023-01-17T00:19:31.568Z,977.01
2023-01-17T00:20:31.551Z,977.10
2023-01-17T00:21:31.549Z,977.02
2023-01-17T00:22:31.532Z,977.19
2023-01-17T00:23:31.541Z,977.09
2023-01-17T00:24:31.631Z,977.09
2023-01-17T00:25:31.515Z,977.06
2023-01-17T00:26:31.486Z,977.09
2023-01-17T00:27:31.471Z,977.12
2023-01-17T00:28:31.455Z,977.09
2023-01-17T00:29:31.449Z,977.18
2023-01-17T00:30:32.111Z,977.04
2023-01-17T00:31:32.675Z,977.07
2023-01-17T00:32:31.404Z,977.05
2023-01-17T00:33:31.675Z,977.20
2023-01-17T00:34:31.378Z,977.19
2023-01-17T00:35:31.376Z,977.12
2023-01-17T00:36:31.398Z,977.16
2023-01-17T00:37:31.344Z,977.11
2023-01-17T00:38:32.103Z,977.18
2023-01-17T00:39:35.274Z,977.24
2023-01-17T00:40:31.538Z,977.21
2023-01-17T00:41:31.294Z,977.24
2023-01-17T00:42:31.315Z,977.22
2023-01-17T00:43:31.266Z,977.22
2023-01-17T00:44:31.264Z,977.22
2023-01-17T00:45:31.527Z,977.27
2023-01-17T00:46:31.257Z,977.30
2023-01-17T00:47:31.206Z,977.27
2023-01-17T00:48:31.390Z,977.34
2023-01-17T00:49:31.194Z,977.25
2023-01-17T00:50:31.406Z,977.24
2023-01-17T00:51:31.167Z,977.42
2023-01-17T00:52:31.148Z,977.32
2023-01-17T00:53:36.740Z,977.30
2023-01-17T00:54:36.132Z,977.25
2023-01-17T00:55:31.107Z,977.25
2023-01-17T00:56:31.098Z,977.30
2023-01-17T00:57:31.101Z,977.32
2023-01-17T00:58:31.077Z,977.25
2023-01-17T00:59:31.888Z,977.29
2023-01-17T01:00:31.163Z,977.33
2023-01-17T01:01:31.083Z,977.29
2023-01-17T01:02:31.094Z,977.35
2023-01-17T01:03:31.284Z,977.38
2023-01-17T01:04:31.006Z,977.37
2023-01-17T01:05:31.004Z,977.38
2023-01-17T01:06:31.021Z,977.35
2023-01-17T01:07:30.970Z,977.36
2023-01-17T01:08:30.949Z,977.38
2023-01-17T01:09:30.975Z,977.36
2023-01-17T01:10:30.930Z,977.40
2023-01-17T01:11:30.935Z,977.41
2023-01-17T01:12:31.242Z,977.44
2023-01-17T01:13:31.400Z,977.44
2023-01-17T01:14:30.885Z,977.49
2023-01-17T01:15:30.862Z,977.52
2023-01-17T01:16:30.889Z,977.58
2023-01-17T01:17:30.847Z,977.56
2023-01-17T01:18:30.937Z,977.58
2023-01-17T01:19:34.769Z,977.51
2023-01-17T01:20:30.813Z,977.54
2023-01-17T01:21:30.798Z,977.61
2023-01-17T01:22:30.785Z,977.56
2023-01-17T01:23:30.772Z,977.66
2023-01-17T01:24:30.865Z,977.59
2023-01-17T01:25:30.750Z,977.59
2023-01-17T01:26:30.716Z,977.60
2023-01-17T01:27:34.497Z,977.66
2023-01-17T01:28:30.996Z,977.70
2023-01-17T01:29:30.975Z,977.67
2023-01-17T01:30:30.777Z,977.78
2023-01-17T01:31:30.733Z,977.73
2023-01-17T01:32:31.496Z,977.81
2023-01-17T01:33:34.953Z,977.84
2023-01-17T01:34:30.931Z,977.89
2023-01-17T01:35:30.889Z,977.85
2023-01-17T01:36:30.711Z,977.89
2023-01-17T01:37:30.598Z,977.95
2023-01-17T01:38:30.571Z,977.99
2023-01-17T01:39:31.271Z,977.98
2023-01-17T01:40:31.341Z,978.04
2023-01-17T01:41:31.510Z,978.01
2023-01-17T01:42:31.198Z,978.04
2023-01-17T01:43:30.526Z,978.07
2023-01-17T01:44:30.511Z,978.10
2023-01-17T01:45:30.520Z,978.11
2023-01-17T01:46:30.474Z,978.08
2023-01-17T01:47:31.230Z,978.16
2023-01-17T01:48:31.423Z,978.09
2023-01-17T01:49:30.449Z,978.16
2023-01-17T01:50:30.703Z,978.11
2023-01-17T01:51:30.436Z,978.10
2023-01-17T01:52:30.402Z,978.12
2023-01-17T01:53:30.404Z,978.14
2023-01-17T01:54:30.524Z,978.28
2023-01-17T01:55:30.373Z,978.31
2023-01-17T01:56:31.094Z,978.28
2023-01-17T01:57:30.344Z,978.04
2023-01-17T01:58:30.344Z,978.24
2023-01-17T01:59:30.349Z,978.26
2023-01-17T02:00:51.496Z,978.29
2023-01-17T02:01:30.353Z,978.22
2023-01-17T02:02:30.286Z,978.30
2023-01-17T02:03:30.305Z,978.30
2023-01-17T02:04:30.280Z,978.32
2023-01-17T02:05:30.238Z,978.33
2023-01-17T02:06:34.355Z,978.30
2023-01-17T02:07:30.207Z,978.42
2023-01-17T02:08:30.211Z,978.36
2023-01-17T02:09:30.970Z,978.48
2023-01-17T02:10:30.448Z,978.43
2023-01-17T02:11:30.463Z,978.55
2023-01-17T02:12:31.132Z,978.51
2023-01-17T02:13:30.161Z,978.54
2023-01-17T02:14:30.148Z,978.51
2023-01-17T02:15:36.039Z,978.57
2023-01-17T02:16:33.911Z,978.56
2023-01-17T02:17:30.393Z,978.56
2023-01-17T02:18:30.106Z,978.58
2023-01-17T02:19:30.063Z,978.64
2023-01-17T02:20:30.061Z,978.76
2023-01-17T02:21:30.050Z,978.75
2023-01-17T02:22:30.030Z,978.82
2023-01-17T02:23:30.042Z,978.73
2023-01-17T02:24:30.120Z,978.80
2023-01-17T02:25:30.007Z,978.80
2023-01-17T02:26:29.982Z,978.79
2023-01-17T02:27:29.963Z,978.85
2023-01-17T02:28:29.966Z,978.88
2023-01-17T02:29:29.945Z,978.94
2023-01-17T02:30:29.953Z,978.91
2023-01-17T02:31:29.976Z,979.00
2023-01-17T02:32:29.915Z,979.03
2023-01-17T02:33:29.896Z,979.00
2023-01-17T02:34:29.913Z,979.00
2023-01-17T02:35:29.875Z,979.10
2023-01-17T02:36:30.162Z,979.08
2023-01-17T02:37:29.848Z,979.17
2023-01-17T02:38:29.846Z,979.21
2023-01-17T02:39:29.845Z,979.13
2023-01-17T02:40:29.809Z,979.20
2023-01-17T02:41:29.802Z,979.14
2023-01-17T02:42:29.905Z,979.27
2023-01-17T02:43:29.791Z,979.32
2023-01-17T02:44:29.790Z,979.19
2023-01-17T02:45:30.544Z,979.34
2023-01-17T02:46:29.748Z,979.24
2023-01-17T02:47:29.721Z,979.47
2023-01-17T02:48:29.817Z,979.35
2023-01-17T02:49:29.712Z,979.39
2023-01-17T02:50:29.697Z,979.45
2023-01-17T02:51:29.691Z,979.57
2023-01-17T02:52:29.939Z,979.55
2023-01-17T02:53:29.658Z,979.59
2023-01-17T02:54:29.970Z,979.58
2023-01-17T02:55:30.392Z,979.56
2023-01-17T02:56:31.674Z,979.65
2023-01-17T02:57:29.601Z,979.61
2023-01-17T02:58:33.702Z,979.61
2023-01-17T02:59:29.575Z,979.68
2023-01-17T03:00:30.462Z,979.70
2023-01-17T03:01:29.658Z,979.70
2023-01-17T03:02:29.570Z,979.70
2023-01-17T03:03:29.521Z,979.70
2023-01-17T03:04:29.545Z,979.68
2023-01-17T03:05:29.524Z,979.83
2023-01-17T03:06:29.623Z,979.77
2023-01-17T03:07:29.762Z,979.80
2023-01-17T03:08:29.477Z,979.84
2023-01-17T03:09:29.441Z,979.94
2023-01-17T03:10:29.464Z,979.86
2023-01-17T03:11:29.419Z,979.92
2023-01-17T03:12:29.468Z,979.98
2023-01-17T03:13:29.416Z,979.89
2023-01-17T03:14:29.397Z,979.99
2023-01-17T03:15:29.682Z,979.94
2023-01-17T03:16:29.414Z,980.04
2023-01-17T03:17:29.363Z,980.07
2023-01-17T03:18:34.340Z,980.22
2023-01-17T03:19:29.329Z,980.22
2023-01-17T03:20:29.326Z,980.18
2023-01-17T03:21:29.361Z,980.17
2023-01-17T03:22:29.983Z,980.21
2023-01-17T03:23:29.279Z,980.10
2023-01-17T03:24:29.306Z,980.15
2023-01-17T03:25:29.259Z,980.26
2023-01-17T03:26:29.249Z,980.31
2023-01-17T03:27:29.505Z,980.37
2023-01-17T03:28:29.232Z,980.39
2023-01-17T03:29:29.206Z,980.41
2023-01-17T03:30:33.220Z,980.35
2023-01-17T03:31:29.184Z,980.40
2023-01-17T03:32:29.176Z,980.41
2023-01-17T03:33:29.872Z,980.44
2023-01-17T03:34:33.059Z,980.42
2023-01-17T03:35:33.229Z,980.44
2023-01-17T03:36:30.331Z,980.46
2023-01-17T03:37:33.022Z,980.45
2023-01-17T03:38:29.089Z,980.57
2023-01-17T03:39:29.105Z,980.60
2023-01-17T03:40:29.083Z,980.55
2023-01-17T03:41:29.080Z,980.56
2023-01-17T03:42:33.058Z,980.63
2023-01-17T03:43:29.305Z,980.66
2023-01-17T03:44:29.078Z,980.66
2023-01-17T03:45:29.321Z,980.64
2023-01-17T03:46:29.004Z,980.66
2023-01-17T03:47:29.297Z,980.64
2023-01-17T03:48:32.997Z,980.61
2023-01-17T03:49:32.907Z,980.65
2023-01-17T03:50:29.221Z,980.70
2023-01-17T03:51:28.947Z,980.70
2023-01-17T03:52:29.204Z,980.78
2023-01-17T03:53:28.950Z,980.68
2023-01-17T03:54:28.944Z,980.71
2023-01-17T03:55:34.897Z,980.77
2023-01-17T03:56:28.877Z,980.80
2023-01-17T03:57:28.869Z,980.78
2023-01-17T03:58:28.851Z,980.89
2023-01-17T03:59:28.839Z,980.88
2023-01-17T04:00:28.907Z,980.90
2023-01-17T04:01:29.916Z,980.93
2023-01-17T04:02:29.634Z,981.10
2023-01-17T04:03:28.797Z,980.98
2023-01-17T04:04:28.778Z,981.11
2023-01-17T04:05:29.496Z,981.19
2023-01-17T04:06:28.802Z,981.25
2023-01-17T04:07:28.750Z,981.28
2023-01-17T04:08:28.979Z,981.18
2023-01-17T04:09:28.717Z,981.28
2023-01-17T04:10:28.712Z,981.29
2023-01-17T04:11:28.722Z,981.25
2023-01-17T04:12:28.749Z,981.28
2023-01-17T04:13:28.686Z,981.34
2023-01-17T04:14:28.655Z,981.24
2023-01-17T04:15:28.921Z,981.32
2023-01-17T04:16:28.669Z,981.29
2023-01-17T04:17:28.621Z,981.32
2023-01-17T04:18:28.664Z,981.41
2023-01-17T04:19:28.600Z,981.32
2023-01-17T04:20:28.577Z,981.26
2023-01-17T04:21:28.613Z,981.29
2023-01-17T04:22:28.567Z,981.30
2023-01-17T04:23:28.564Z,981.36
2023-01-17T04:24:28.541Z,981.34
2023-01-17T04:25:28.561Z,981.30
2023-01-17T04:26:28.512Z,981.33
2023-01-17T04:27:28.769Z,981.35
2023-01-17T04:28:28.497Z,981.35
2023-01-17T04:29:28.503Z,981.36
2023-01-17T04:30:32.328Z,981.30
2023-01-17T04:31:28.484Z,981.41
2023-01-17T04:32:28.445Z,981.45
2023-01-17T04:33:28.426Z,981.36
2023-01-17T04:34:28.413Z,981.46
2023-01-17T04:35:28.517Z,981.38
2023-01-17T04:36:28.409Z,981.41
2023-01-17T04:37:28.410Z,981.56
2023-01-17T04:38:28.361Z,981.44
2023-01-17T04:39:28.357Z,981.42
2023-01-17T04:40:28.347Z,981.55
2023-01-17T04:41:28.364Z,981.52
2023-01-17T04:42:28.797Z,981.58
2023-01-17T04:43:28.309Z,981.60
2023-01-17T04:44:28.293Z,981.60
2023-01-17T04:45:28.569Z,981.60
2023-01-17T04:46:28.423Z,981.70
2023-01-17T04:47:28.297Z,981.67
2023-01-17T04:48:28.259Z,981.60
2023-01-17T04:49:28.231Z,981.67
2023-01-17T04:50:28.220Z,981.64
2023-01-17T04:51:28.208Z,981.68
2023-01-17T04:52:29.053Z,981.61
2023-01-17T04:53:28.214Z,981.64
2023-01-17T04:54:28.413Z,981.73
2023-01-17T04:55:28.163Z,981.63
2023-01-17T04:56:28.148Z,981.75
2023-01-17T04:57:28.410Z,981.72
2023-01-17T04:58:28.112Z,981.76
2023-01-17T04:59:28.167Z,981.76
2023-01-17T05:00:28.912Z,981.74
2023-01-17T05:01:28.191Z,981.75
2023-01-17T05:02:28.381Z,981.80
2023-01-17T05:03:28.064Z,981.84
2023-01-17T05:04:31.842Z,981.82
2023-01-17T05:05:28.834Z,981.80
2023-01-17T05:06:29.014Z,981.87
2023-01-17T05:07:28.037Z,981.84
2023-01-17T05:08:28.010Z,981.88
2023-01-17T05:09:27.996Z,981.86
2023-01-17T05:10:27.999Z,981.89
2023-01-17T05:11:27.983Z,981.95
2023-01-17T05:12:31.854Z,981.94
2023-01-17T05:13:27.939Z,981.89
2023-01-17T05:14:32.934Z,981.91
2023-01-17T05:15:28.951Z,981.96
2023-01-17T05:16:27.910Z,982.01
2023-01-17T05:17:31.885Z,981.98
2023-01-17T05:18:31.779Z,982.02
2023-01-17T05:19:28.545Z,981.96
2023-01-17T05:20:27.916Z,981.95
2023-01-17T05:21:27.858Z,982.04
2023-01-17T05:22:27.826Z,982.04
2023-01-17T05:23:27.838Z,981.92
2023-01-17T05:24:27.807Z,981.93
2023-01-17T05:25:27.795Z,981.99
2023-01-17T05:26:27.779Z,982.02
2023-01-17T05:27:28.585Z,982.10
2023-01-17T05:28:27.762Z,982.00
2023-01-17T05:29:27.848Z,982.07
2023-01-17T05:30:27.733Z,982.06
2023-01-17T05:31:27.717Z,982.03
2023-01-17T05:32:27.710Z,982.09
2023-01-17T05:33:28.373Z,982.10
2023-01-17T05:34:27.699Z,981.95
2023-01-17T05:35:27.727Z,982.09
2023-01-17T05:36:27.698Z,982.05
2023-01-17T05:37:27.640Z,981.98
2023-01-17T05:38:27.629Z,982.12
2023-01-17T05:39:27.622Z,982.17
2023-01-17T05:40:27.929Z,982.22
2023-01-17T05:41:27.632Z,982.15
2023-01-17T05:42:27.605Z,982.22
2023-01-17T05:43:31.704Z,982.23
2023-01-17T05:44:28.373Z,982.21
2023-01-17T05:45:28.364Z,982.24
2023-01-17T05:46:27.549Z,982.30
2023-01-17T05:47:27.836Z,982.33
2023-01-17T05:48:27.498Z,982.39
2023-01-17T05:49:27.492Z,982.32
2023-01-17T05:50:27.985Z,982.41
2023-01-17T05:51:27.465Z,982.31
2023-01-17T05:52:27.465Z,982.51
2023-01-17T05:53:27.680Z,982.41
2023-01-17T05:54:27.437Z,982.51
2023-01-17T05:55:27.415Z,982.49
2023-01-17T05:56:27.405Z,982.49
2023-01-17T05:57:27.397Z,982.44
2023-01-17T05:58:27.394Z,982.62
2023-01-17T05:59:36.415Z,982.50
2023-01-17T06:00:28.362Z,982.55
2023-01-17T06:01:27.616Z,982.53
2023-01-17T06:02:27.368Z,982.50
2023-01-17T06:03:27.630Z,982.56
2023-01-17T06:04:27.349Z,982.54
2023-01-17T06:05:27.621Z,982.55
2023-01-17T06:06:27.281Z,982.56
2023-01-17T06:07:27.281Z,982.59
2023-01-17T06:08:27.272Z,982.51
2023-01-17T06:09:27.258Z,982.59
2023-01-17T06:10:27.480Z,982.64
2023-01-17T06:11:27.251Z,982.59
2023-01-17T06:12:27.498Z,982.60
2023-01-17T06:13:27.236Z,982.65
2023-01-17T06:14:27.194Z,982.71
2023-01-17T06:15:27.177Z,982.61
2023-01-17T06:16:27.275Z,982.61
2023-01-17T06:17:27.564Z,982.72
2023-01-17T06:18:27.165Z,982.67
2023-01-17T06:19:27.164Z,982.75
2023-01-17T06:20:27.120Z,982.76
2023-01-17T06:21:27.136Z,982.81
2023-01-17T06:22:27.397Z,982.78
2023-01-17T06:23:27.123Z,982.84
2023-01-17T06:24:28.034Z,982.89
2023-01-17T06:25:27.065Z,982.85
2023-01-17T06:26:27.046Z,982.94
2023-01-17T06:27:27.311Z,982.91
2023-01-17T06:28:27.033Z,982.92
2023-01-17T06:29:27.327Z,982.99
2023-01-17T06:30:27.265Z,983.01
2023-01-17T06:31:27.383Z,983.02
2023-01-17T06:32:26.978Z,983.06
2023-01-17T06:33:27.038Z,983.08
2023-01-17T06:34:26.960Z,983.00
2023-01-17T06:35:27.064Z,983.15
2023-01-17T06:36:27.251Z,983.10
2023-01-17T06:37:26.928Z,983.05
2023-01-17T06:38:26.916Z,982.97
2023-01-17T06:39:26.894Z,983.01
2023-01-17T06:40:26.878Z,983.05
2023-01-17T06:41:26.916Z,983.02
2023-01-17T06:42:26.883Z,983.02
2023-01-17T06:43:26.835Z,983.00
2023-01-17T06:44:26.838Z,982.97
2023-01-17T06:45:26.819Z,983.12
2023-01-17T06:46:26.825Z,982.94
2023-01-17T06:47:26.841Z,982.94
2023-01-17T06:48:26.790Z,982.96
2023-01-17T06:49:26.782Z,983.07
2023-01-17T06:50:26.770Z,983.06
2023-01-17T06:51:26.742Z,983.04
2023-01-17T06:52:26.720Z,983.09
2023-01-17T06:53:27.180Z,983.01
2023-01-17T06:54:26.710Z,983.07
2023-01-17T06:55:26.708Z,983.07
2023-01-17T06:56:26.673Z,983.10
2023-01-17T06:57:26.681Z,983.10
2023-01-17T06:58:26.652Z,983.16
2023-01-17T06:59:26.673Z,983.22
2023-01-17T07:00:26.644Z,983.21
2023-01-17T07:01:27.400Z,983.24
2023-01-17T07:02:26.874Z,983.36
2023-01-17T07:03:26.602Z,983.24
2023-01-17T07:04:26.724Z,983.29
2023-01-17T07:05:27.412Z,983.26
2023-01-17T07:06:26.800Z,983.31
2023-01-17T07:07:26.554Z,983.31
2023-01-17T07:08:26.575Z,983.29
2023-01-17T07:09:26.513Z,983.36
2023-01-17T07:10:26.775Z,983.32
2023-01-17T07:11:26.531Z,983.41
2023-01-17T07:12:26.482Z,983.41
2023-01-17T07:13:26.471Z,983.42
2023-01-17T07:14:26.737Z,983.43
2023-01-17T07:15:26.456Z,983.45
2023-01-17T07:16:26.458Z,983.49
2023-01-17T07:17:26.543Z,983.50
2023-01-17T07:18:26.744Z,983.53
2023-01-17T07:19:27.631Z,983.46
2023-01-17T07:20:26.380Z,983.57
2023-01-17T07:21:26.769Z,983.51
2023-01-17T07:22:26.648Z,983.58
2023-01-17T07:23:26.794Z,983.59
2023-01-17T07:24:26.801Z,983.60
2023-01-17T07:25:27.816Z,983.56
2023-01-17T07:26:26.323Z,983.66
2023-01-17T07:27:27.096Z,983.60
2023-01-17T07:28:26.571Z,983.61
2023-01-17T07:29:26.916Z,983.65
2023-01-17T07:30:27.179Z,983.63
2023-01-17T07:31:27.256Z,983.59
2023-01-17T07:32:26.940Z,983.59
2023-01-17T07:33:27.191Z,983.69
2023-01-17T07:34:26.315Z,983.68
2023-01-17T07:35:26.427Z,983.61
2023-01-17T07:36:26.941Z,983.59
2023-01-17T07:37:26.464Z,983.67
2023-01-17T07:38:26.452Z,983.62
2023-01-17T07:39:26.185Z,983.66
2023-01-17T07:40:26.167Z,983.64
2023-01-17T07:41:26.194Z,983.69
2023-01-17T07:42:26.146Z,983.65
2023-01-17T07:43:26.928Z,983.68
2023-01-17T07:44:26.113Z,983.76
2023-01-17T07:45:26.630Z,983.72
2023-01-17T07:46:26.146Z,983.76
2023-01-17T07:47:26.144Z,983.73
2023-01-17T07:48:26.056Z,983.76
2023-01-17T07:49:26.335Z,983.72
2023-01-17T07:50:26.060Z,983.84
2023-01-17T07:51:26.016Z,983.74
2023-01-17T07:52:26.000Z,983.82
2023-01-17T07:53:26.089Z,983.79
2023-01-17T07:54:26.013Z,983.81
2023-01-17T07:55:26.394Z,983.76
2023-01-17T07:56:26.138Z,983.89
2023-01-17T07:57:25.943Z,983.80
2023-01-17T07:58:25.935Z,983.81
2023-01-17T07:59:26.376Z,983.80
2023-01-17T08:00:26.457Z,983.80
2023-01-17T08:01:26.172Z,983.82
2023-01-17T08:02:25.880Z,983.70
2023-01-17T08:03:26.379Z,983.74
2023-01-17T08:04:25.866Z,983.84
2023-01-17T08:05:26.436Z,983.75
2023-01-17T08:06:26.125Z,983.79
2023-01-17T08:07:25.809Z,983.81
2023-01-17T08:08:26.228Z,983.81
2023-01-17T08:09:26.276Z,983.72
2023-01-17T08:10:25.864Z,983.84
2023-01-17T08:11:25.811Z,983.86
2023-01-17T08:12:25.859Z,983.77
2023-01-17T08:13:25.798Z,983.73
2023-01-17T08:14:25.849Z,983.85
2023-01-17T08:15:25.919Z,983.81
2023-01-17T08:16:26.689Z,983.81
2023-01-17T08:17:26.560Z,983.78
2023-01-17T08:18:28.238Z,983.72
2023-01-17T08:19:25.714Z,983.84
2023-01-17T08:20:27.771Z,983.80
2023-01-17T08:21:25.734Z,983.83
2023-01-17T08:22:25.672Z,983.85
2023-01-17T08:23:25.643Z,983.86
2023-01-17T08:24:25.773Z,984.03
2023-01-17T08:25:26.428Z,983.98
2023-01-17T08:26:25.597Z,984.01
2023-01-17T08:27:25.825Z,984.05
2023-01-17T08:28:25.567Z,983.92
2023-01-17T08:29:25.852Z,984.04
2023-01-17T08:30:25.813Z,983.93
2023-01-17T08:31:25.598Z,983.87
2023-01-17T08:32:25.674Z,983.93
2023-01-17T08:33:25.784Z,983.99
2023-01-17T08:34:25.624Z,983.95
2023-01-17T08:35:25.515Z,983.95
2023-01-17T08:36:25.984Z,983.87
2023-01-17T08:37:26.277Z,983.92
2023-01-17T08:38:25.672Z,983.96
2023-01-17T08:39:25.935Z,983.97
2023-01-17T08:40:25.404Z,984.00
2023-01-17T08:41:25.976Z,983.92
2023-01-17T08:42:27.122Z,983.94
2023-01-17T08:43:26.087Z,984.00
2023-01-17T08:44:26.120Z,983.93
2023-01-17T08:45:25.578Z,983.98
2023-01-17T08:46:26.287Z,983.93
2023-01-17T08:47:26.590Z,983.91
2023-01-17T08:48:26.145Z,983.92
2023-01-17T08:49:26.114Z,983.94
2023-01-17T08:50:25.323Z,983.97
2023-01-17T08:51:25.517Z,983.91
2023-01-17T08:52:25.537Z,984.02
2023-01-17T08:53:25.632Z,983.99
2023-01-17T08:54:25.571Z,984.00
2023-01-17T08:55:26.187Z,984.11
2023-01-17T08:56:25.430Z,984.07
2023-01-17T08:57:25.564Z,984.06
2023-01-17T08:58:25.209Z,984.09
2023-01-17T08:59:25.438Z,984.01
2023-01-17T09:00:25.174Z,984.09
2023-01-17T09:01:25.311Z,984.12
2023-01-17T09:02:25.132Z,984.19
2023-01-17T09:03:25.138Z,983.96
2023-01-17T09:04:25.785Z,984.10
2023-01-17T09:05:25.153Z,984.08
2023-01-17T09:06:25.108Z,984.11
2023-01-17T09:07:25.465Z,984.11
2023-01-17T09:08:25.116Z,984.11
2023-01-17T09:09:25.135Z,984.16
2023-01-17T09:10:25.094Z,984.16
2023-01-17T09:11:25.142Z,984.06
2023-01-17T09:12:25.968Z,984.07
2023-01-17T09:13:25.874Z,984.01
2023-01-17T09:14:25.136Z,984.09
2023-01-17T09:15:25.228Z,984.03
2023-01-17T09:16:25.014Z,984.08
2023-01-17T09:17:25.134Z,984.08
2023-01-17T09:18:24.961Z,984.08
2023-01-17T09:19:25.126Z,984.17
2023-01-17T09:20:25.144Z,984.12
2023-01-17T09:21:25.227Z,984.14
2023-01-17T09:22:25.121Z,984.20
2023-01-17T09:23:25.119Z,984.23
2023-01-17T09:24:24.910Z,984.14
2023-01-17T09:25:24.961Z,984.21
2023-01-17T09:26:25.143Z,984.15
2023-01-17T09:27:25.122Z,984.24
2023-01-17T09:28:25.124Z,984.25
2023-01-17T09:29:25.221Z,984.18
2023-01-17T09:30:24.803Z,984.20
2023-01-17T09:31:24.831Z,984.21
2023-01-17T09:32:24.853Z,984.25
2023-01-17T09:33:24.770Z,984.30
2023-01-17T09:34:26.497Z,984.31
2023-01-17T09:35:24.785Z,984.25
2023-01-17T09:36:24.755Z,984.29
2023-01-17T09:37:24.713Z,984.33
2023-01-17T09:38:24.942Z,984.29
2023-01-17T09:39:24.687Z,984.33
2023-01-17T09:40:24.768Z,984.26
2023-01-17T09:41:24.702Z,984.37
2023-01-17T09:42:24.844Z,984.42
2023-01-17T09:43:24.649Z,984.44
2023-01-17T09:44:24.651Z,984.42
2023-01-17T09:45:24.645Z,984.47
2023-01-17T09:46:25.568Z,984.48
2023-01-17T09:47:24.875Z,984.46
2023-01-17T09:48:24.589Z,984.52
2023-01-17T09:49:24.565Z,984.47
2023-01-17T09:50:24.564Z,984.53
2023-01-17T09:51:24.716Z,984.51
2023-01-17T09:52:24.560Z,984.46
2023-01-17T09:53:25.487Z,984.55
2023-01-17T09:54:24.537Z,984.50
2023-01-17T09:55:24.625Z,984.51
2023-01-17T09:56:24.738Z,984.48
2023-01-17T09:57:24.794Z,984.53
2023-01-17T09:58:24.630Z,984.55
2023-01-17T09:59:32.822Z,984.60
2023-01-17T10:00:25.771Z,984.56
2023-01-17T10:01:24.561Z,984.53
2023-01-17T10:02:26.527Z,984.66
2023-01-17T10:03:24.467Z,984.59
2023-01-17T10:04:24.427Z,984.59
2023-01-17T10:05:24.490Z,984.58
2023-01-17T10:06:25.202Z,984.55
2023-01-17T10:07:24.631Z,984.57
2023-01-17T10:08:24.414Z,984.58
2023-01-17T10:09:24.313Z,984.61
2023-01-17T10:10:24.481Z,984.63
2023-01-17T10:11:25.542Z,984.52
2023-01-17T10:12:24.584Z,984.55
2023-01-17T10:13:24.272Z,984.54
2023-01-17T10:14:24.554Z,984.48
2023-01-17T10:15:24.541Z,984.53
2023-01-17T10:16:24.310Z,984.50
2023-01-17T10:17:24.416Z,984.50
2023-01-17T10:18:29.870Z,984.55
2023-01-17T10:19:25.679Z,984.58
2023-01-17T10:20:28.148Z,984.57
2023-01-17T10:21:24.183Z,984.58
2023-01-17T10:22:24.414Z,984.52
2023-01-17T10:23:24.998Z,984.45
2023-01-17T10:24:24.149Z,984.52
2023-01-17T10:25:24.886Z,984.49
2023-01-17T10:26:24.104Z,984.59
2023-01-17T10:27:24.095Z,984.55
2023-01-17T10:28:24.096Z,984.53
2023-01-17T10:29:24.254Z,984.54
2023-01-17T10:30:24.478Z,984.52
2023-01-17T10:31:24.546Z,984.58
2023-01-17T10:32:24.374Z,984.57
2023-01-17T10:33:24.354Z,984.57
2023-01-17T10:34:24.032Z,984.57
2023-01-17T10:35:24.039Z,984.55
2023-01-17T10:36:23.988Z,984.58
2023-01-17T10:37:24.297Z,984.52
2023-01-17T10:38:24.168Z,984.64
2023-01-17T10:39:23.987Z,984.56
2023-01-17T10:40:23.979Z,984.60
2023-01-17T10:41:23.962Z,984.65
2023-01-17T10:42:23.918Z,984.68
2023-01-17T10:43:27.988Z,984.59
2023-01-17T10:44:24.035Z,984.57
2023-01-17T10:45:24.258Z,984.61
2023-01-17T10:46:24.115Z,984.64
2023-01-17T10:47:24.046Z,984.48
2023-01-17T10:48:24.080Z,984.57
2023-01-17T10:49:24.097Z,984.63
2023-01-17T10:50:23.901Z,984.57
2023-01-17T10:51:23.812Z,984.61
2023-01-17T10:52:23.847Z,984.57
2023-01-17T10:53:27.772Z,984.54
2023-01-17T10:54:24.059Z,984.62
2023-01-17T10:55:23.941Z,984.54
2023-01-17T10:56:24.204Z,984.52
2023-01-17T10:57:23.743Z,984.55
2023-01-17T10:58:23.743Z,984.47
2023-01-17T10:59:24.235Z,984.52
2023-01-17T11:00:24.671Z,984.55
2023-01-17T11:01:23.795Z,984.59
2023-01-17T11:02:23.798Z,984.50
2023-01-17T11:03:23.680Z,984.64
2023-01-17T11:04:23.754Z,984.60
2023-01-17T11:05:23.659Z,984.54
2023-01-17T11:06:23.891Z,984.53
2023-01-17T11:07:23.839Z,984.50
2023-01-17T11:08:23.734Z,984.47
2023-01-17T11:09:23.576Z,984.54
2023-01-17T11:10:23.727Z,984.40
2023-01-17T11:11:27.841Z,984.44
2023-01-17T11:12:23.579Z,984.42
2023-01-17T11:13:24.987Z,984.49
2023-01-17T11:14:24.135Z,984.47
2023-01-17T11:15:27.532Z,984.45
2023-01-17T11:16:24.458Z,984.53
2023-01-17T11:17:24.238Z,984.52
2023-01-17T11:18:23.875Z,984.52
2023-01-17T11:19:23.469Z,984.52
2023-01-17T11:20:23.645Z,984.50
2023-01-17T11:21:27.650Z,984.50
2023-01-17T11:22:23.720Z,984.47
2023-01-17T11:23:23.852Z,984.48
2023-01-17T11:24:23.958Z,984.38
2023-01-17T11:25:23.390Z,984.55
2023-01-17T11:26:23.909Z,984.52
2023-01-17T11:27:24.213Z,984.50
2023-01-17T11:28:24.164Z,984.49
2023-01-17T11:29:23.330Z,984.54
2023-01-17T11:30:23.335Z,984.54
2023-01-17T11:31:23.620Z,984.45
2023-01-17T11:32:24.080Z,984.56
2023-01-17T11:33:23.393Z,984.51
2023-01-17T11:34:23.303Z,984.54
2023-01-17T11:35:23.385Z,984.47
2023-01-17T11:36:24.483Z,984.57
2023-01-17T11:37:24.446Z,984.58
2023-01-17T11:38:23.222Z,984.55
2023-01-17T11:39:23.908Z,984.57
2023-01-17T11:40:28.133Z,984.56
2023-01-17T11:41:27.523Z,984.53
2023-01-17T11:42:23.191Z,984.58
2023-01-17T11:43:24.113Z,984.58
2023-01-17T11:44:23.939Z,984.57
2023-01-17T11:45:23.887Z,984.56
2023-01-17T11:46:23.902Z,984.58
2023-01-17T11:47:23.104Z,984.58
2023-01-17T11:48:23.374Z,984.47
2023-01-17T11:49:23.928Z,984.49
2023-01-17T11:50:23.085Z,984.53
2023-01-17T11:51:23.086Z,984.47
2023-01-17T11:52:23.107Z,984.46
2023-01-17T11:53:23.341Z,984.47
2023-01-17T11:54:24.883Z,984.46
2023-01-17T11:55:30.660Z,984.43
2023-01-17T11:56:23.005Z,984.46
2023-01-17T11:57:23.177Z,984.47
2023-01-17T11:58:22.968Z,984.47
2023-01-17T11:59:22.958Z,984.42
2023-01-17T12:00:22.981Z,984.48
2023-01-17T12:01:22.982Z,984.37
2023-01-17T12:02:22.984Z,984.46
2023-01-17T12:03:23.053Z,984.48
2023-01-17T12:04:23.926Z,984.45
2023-01-17T12:05:23.000Z,984.38
2023-01-17T12:06:22.878Z,984.42
2023-01-17T12:07:22.859Z,984.37
2023-01-17T12:08:22.958Z,984.36
2023-01-17T12:09:23.015Z,984.44
2023-01-17T12:10:23.583Z,984.38
2023-01-17T12:11:22.813Z,984.39
2023-01-17T12:12:26.859Z,984.36
2023-01-17T12:13:23.073Z,984.39
2023-01-17T12:14:22.788Z,984.44
2023-01-17T12:15:22.879Z,984.41
2023-01-17T12:16:23.021Z,984.43
2023-01-17T12:17:22.993Z,984.42
2023-01-17T12:18:22.732Z,984.44
2023-01-17T12:19:27.202Z,984.39
2023-01-17T12:20:22.768Z,984.37
2023-01-17T12:21:22.990Z,984.32
2023-01-17T12:22:23.420Z,984.37
2023-01-17T12:23:22.998Z,984.33
2023-01-17T12:24:22.663Z,984.36
2023-01-17T12:25:23.601Z,984.35
2023-01-17T12:26:23.451Z,984.29
2023-01-17T12:27:22.710Z,984.35
2023-01-17T12:28:22.977Z,984.34